GRZ555 Details

Departure: (PAVD)
Arrival: Ted Stevens Anchorage International Airport (PANC)
Route: FJORD1 YESKA YESKA6


Current Weather Information
PAVD 251156Z AUTO 05004KT 10SM BKN040 OVC055 09/06 A2994 RMK AO2 SLP157 T00940061 10128 20089 51016
PANC 251153Z 20003KT 4SM FU OVC080 12/08 A2986 RMK AO2 SLP111 T01170078 10144 20100 51010